sensor_id;sensor_type;location;lat;lon;timestamp;pressure;altitude;pressure_sealevel;temperature;humidity
20752;BME280;10536;51.582;5.016;2022-08-21T00:03:11;101746.41;;;19.10;100.00
20752;BME280;10536;51.582;5.016;2022-08-21T00:08:12;101746.53;;;19.06;100.00
20752;BME280;10536;51.582;5.016;2022-08-21T00:13:14;101740.34;;;18.82;100.00
20752;BME280;10536;51.582;5.016;2022-08-21T00:18:15;101728.25;;;19.04;100.00
20752;BME280;10536;51.582;5.016;2022-08-21T00:23:16;101724.84;;;19.02;100.00
20752;BME280;10536;51.582;5.016;2022-08-21T00:28:17;101727.09;;;18.86;100.00
20752;BME280;10536;51.582;5.016;2022-08-21T00:33:18;101713.03;;;18.89;100.00
20752;BME280;10536;51.582;5.016;2022-08-21T00:38:18;101720.66;;;18.97;100.00
20752;BME280;10536;51.582;5.016;2022-08-21T00:43:27;101721.47;;;18.99;100.00
20752;BME280;10536;51.582;5.016;2022-08-21T00:48:28;101715.97;;;19.31;100.00
20752;BME280;10536;51.582;5.016;2022-08-21T00:53:29;101719.56;;;19.27;100.00
20752;BME280;10536;51.582;5.016;2022-08-21T00:58:31;101728.19;;;18.79;100.00
20752;BME280;10536;51.582;5.016;2022-08-21T01:03:33;101722.09;;;18.52;100.00
20752;BME280;10536;51.582;5.016;2022-08-21T01:08:34;101716.88;;;18.50;100.00
20752;BME280;10536;51.582;5.016;2022-08-21T01:13:36;101707.06;;;18.57;100.00
20752;BME280;10536;51.582;5.016;2022-08-21T01:18:37;101718.38;;;18.31;100.00
20752;BME280;10536;51.582;5.016;2022-08-21T01:23:39;101720.25;;;18.26;100.00
20752;BME280;10536;51.582;5.016;2022-08-21T01:34:10;101725.88;;;18.13;100.00
20752;BME280;10536;51.582;5.016;2022-08-21T01:39:11;101723.56;;;18.32;100.00
20752;BME280;10536;51.582;5.016;2022-08-21T01:44:12;101721.63;;;18.38;100.00
20752;BME280;10536;51.582;5.016;2022-08-21T01:49:12;101711.09;;;18.12;100.00
20752;BME280;10536;51.582;5.016;2022-08-21T01:54:12;101712.97;;;18.07;100.00
20752;BME280;10536;51.582;5.016;2022-08-21T01:59:13;101720.81;;;18.09;100.00
20752;BME280;10536;51.582;5.016;2022-08-21T02:04:14;101708.97;;;17.95;100.00
20752;BME280;10536;51.582;5.016;2022-08-21T02:09:15;101713.38;;;18.23;100.00
20752;BME280;10536;51.582;5.016;2022-08-21T02:14:16;101706.50;;;18.19;100.00
20752;BME280;10536;51.582;5.016;2022-08-21T02:19:17;101710.41;;;18.06;100.00
20752;BME280;10536;51.582;5.016;2022-08-21T02:24:17;101702.97;;;17.92;100.00
20752;BME280;10536;51.582;5.016;2022-08-21T02:29:17;101694.47;;;17.85;100.00
20752;BME280;10536;51.582;5.016;2022-08-21T02:34:18;101696.69;;;17.68;100.00
20752;BME280;10536;51.582;5.016;2022-08-21T02:39:19;101693.09;;;17.70;100.00
20752;BME280;10536;51.582;5.016;2022-08-21T02:44:19;101698.13;;;17.47;100.00
20752;BME280;10536;51.582;5.016;2022-08-21T02:49:20;101692.53;;;17.59;100.00
20752;BME280;10536;51.582;5.016;2022-08-21T02:54:20;101689.84;;;17.62;100.00
20752;BME280;10536;51.582;5.016;2022-08-21T02:59:21;101684.50;;;17.65;100.00
20752;BME280;10536;51.582;5.016;2022-08-21T03:04:21;101685.72;;;17.53;100.00
20752;BME280;10536;51.582;5.016;2022-08-21T03:09:22;101678.97;;;17.46;100.00
20752;BME280;10536;51.582;5.016;2022-08-21T03:14:22;101685.59;;;17.28;100.00
20752;BME280;10536;51.582;5.016;2022-08-21T03:19:23;101674.66;;;17.44;100.00
20752;BME280;10536;51.582;5.016;2022-08-21T03:24:23;101678.94;;;17.48;100.00
20752;BME280;10536;51.582;5.016;2022-08-21T03:29:24;101673.81;;;17.43;100.00
20752;BME280;10536;51.582;5.016;2022-08-21T03:34:25;101664.19;;;17.12;100.00
20752;BME280;10536;51.582;5.016;2022-08-21T03:39:25;101664.72;;;17.25;100.00
20752;BME280;10536;51.582;5.016;2022-08-21T03:44:26;101656.63;;;17.03;100.00
20752;BME280;10536;51.582;5.016;2022-08-21T03:49:29;101652.88;;;17.12;100.00
20752;BME280;10536;51.582;5.016;2022-08-21T03:54:29;101648.06;;;17.29;100.00
20752;BME280;10536;51.582;5.016;2022-08-21T03:59:30;101647.00;;;17.36;100.00
20752;BME280;10536;51.582;5.016;2022-08-21T04:04:30;101662.84;;;17.30;100.00
20752;BME280;10536;51.582;5.016;2022-08-21T04:09:31;101661.66;;;17.11;100.00
20752;BME280;10536;51.582;5.016;2022-08-21T04:14:31;101669.72;;;17.02;100.00
20752;BME280;10536;51.582;5.016;2022-08-21T04:19:32;101678.69;;;17.24;100.00
20752;BME280;10536;51.582;5.016;2022-08-21T04:24:33;101682.78;;;17.34;100.00
20752;BME280;10536;51.582;5.016;2022-08-21T04:29:34;101678.63;;;17.59;100.00
20752;BME280;10536;51.582;5.016;2022-08-21T04:34:35;101676.00;;;17.59;100.00
20752;BME280;10536;51.582;5.016;2022-08-21T04:39:35;101678.88;;;17.49;100.00
20752;BME280;10536;51.582;5.016;2022-08-21T04:44:36;101671.22;;;17.10;100.00
20752;BME280;10536;51.582;5.016;2022-08-21T04:49:36;101674.94;;;17.02;100.00
20752;BME280;10536;51.582;5.016;2022-08-21T04:54:37;101680.56;;;16.86;100.00
20752;BME280;10536;51.582;5.016;2022-08-21T04:59:46;101682.47;;;17.14;100.00
20752;BME280;10536;51.582;5.016;2022-08-21T05:04:50;101679.06;;;17.10;100.00
20752;BME280;10536;51.582;5.016;2022-08-21T05:09:51;101691.97;;;17.16;100.00
20752;BME280;10536;51.582;5.016;2022-08-21T05:14:52;101693.03;;;17.42;100.00
20752;BME280;10536;51.582;5.016;2022-08-21T05:19:52;101694.53;;;17.51;100.00
20752;BME280;10536;51.582;5.016;2022-08-21T05:24:53;101702.59;;;17.43;100.00
20752;BME280;10536;51.582;5.016;2022-08-21T05:29:53;101696.38;;;17.77;100.00
20752;BME280;10536;51.582;5.016;2022-08-21T05:34:54;101707.22;;;17.65;100.00
20752;BME280;10536;51.582;5.016;2022-08-21T05:39:54;101710.69;;;17.65;100.00
20752;BME280;10536;51.582;5.016;2022-08-21T05:44:55;101711.97;;;17.82;100.00
20752;BME280;10536;51.582;5.016;2022-08-21T05:49:55;101708.13;;;17.32;100.00
20752;BME280;10536;51.582;5.016;2022-08-21T05:54:56;101713.47;;;17.28;100.00
20752;BME280;10536;51.582;5.016;2022-08-21T05:59:56;101704.34;;;17.43;100.00
20752;BME280;10536;51.582;5.016;2022-08-21T06:04:57;101696.66;;;17.99;100.00
20752;BME280;10536;51.582;5.016;2022-08-21T06:09:57;101692.03;;;18.35;100.00
20752;BME280;10536;51.582;5.016;2022-08-21T06:14:58;101703.59;;;18.00;100.00
20752;BME280;10536;51.582;5.016;2022-08-21T06:19:58;101698.38;;;18.55;100.00
20752;BME280;10536;51.582;5.016;2022-08-21T06:24:58;101702.38;;;18.67;100.00
20752;BME280;10536;51.582;5.016;2022-08-21T06:29:59;101705.00;;;18.93;100.00
20752;BME280;10536;51.582;5.016;2022-08-21T06:34:59;101704.75;;;19.01;100.00
20752;BME280;10536;51.582;5.016;2022-08-21T06:40:00;101712.00;;;19.20;100.00
20752;BME280;10536;51.582;5.016;2022-08-21T06:45:00;101703.97;;;19.24;100.00
20752;BME280;10536;51.582;5.016;2022-08-21T06:50:01;101702.88;;;19.55;100.00
20752;BME280;10536;51.582;5.016;2022-08-21T06:55:05;101697.16;;;19.91;100.00
20752;BME280;10536;51.582;5.016;2022-08-21T07:00:06;101697.03;;;20.18;100.00
20752;BME280;10536;51.582;5.016;2022-08-21T07:05:08;101700.53;;;20.39;100.00
20752;BME280;10536;51.582;5.016;2022-08-21T07:10:09;101694.50;;;20.59;100.00
20752;BME280;10536;51.582;5.016;2022-08-21T07:15:09;101693.94;;;20.73;100.00
20752;BME280;10536;51.582;5.016;2022-08-21T07:20:10;101685.53;;;20.64;100.00
20752;BME280;10536;51.582;5.016;2022-08-21T07:25:14;101695.78;;;20.91;100.00
20752;BME280;10536;51.582;5.016;2022-08-21T07:30:15;101693.03;;;20.94;100.00
20752;BME280;10536;51.582;5.016;2022-08-21T07:35:16;101696.66;;;21.12;100.00
20752;BME280;10536;51.582;5.016;2022-08-21T07:40:17;101697.16;;;21.20;100.00
20752;BME280;10536;51.582;5.016;2022-08-21T07:45:20;101706.31;;;21.53;100.00
20752;BME280;10536;51.582;5.016;2022-08-21T07:50:21;101702.72;;;22.11;100.00
20752;BME280;10536;51.582;5.016;2022-08-21T07:55:22;101694.03;;;22.08;100.00
20752;BME280;10536;51.582;5.016;2022-08-21T08:00:25;101695.41;;;22.36;100.00
20752;BME280;10536;51.582;5.016;2022-08-21T08:05:29;101689.63;;;22.82;100.00
20752;BME280;10536;51.582;5.016;2022-08-21T08:10:29;101686.81;;;23.20;100.00
20752;BME280;10536;51.582;5.016;2022-08-21T08:15:30;101681.22;;;23.75;100.00
20752;BME280;10536;51.582;5.016;2022-08-21T08:20:31;101674.28;;;23.73;100.00
20752;BME280;10536;51.582;5.016;2022-08-21T08:25:32;101679.53;;;24.22;100.00
20752;BME280;10536;51.582;5.016;2022-08-21T08:30:32;101686.03;;;24.47;100.00
20752;BME280;10536;51.582;5.016;2022-08-21T08:35:33;101676.88;;;24.22;100.00
20752;BME280;10536;51.582;5.016;2022-08-21T08:40:44;101668.31;;;24.79;100.00
20752;BME280;10536;51.582;5.016;2022-08-21T08:45:49;101659.75;;;25.04;100.00
20752;BME280;10536;51.582;5.016;2022-08-21T08:50:55;101657.28;;;25.58;100.00
20752;BME280;10536;51.582;5.016;2022-08-21T08:56:03;101660.72;;;26.02;100.00
20752;BME280;10536;51.582;5.016;2022-08-21T09:01:09;101657.50;;;25.83;100.00
20752;BME280;10536;51.582;5.016;2022-08-21T09:06:34;101652.03;;;26.13;100.00
20752;BME280;10536;51.582;5.016;2022-08-21T09:11:44;101641.72;;;25.81;100.00
20752;BME280;10536;51.582;5.016;2022-08-21T09:27:51;101656.59;;;26.51;100.00
20752;BME280;10536;51.582;5.016;2022-08-21T09:32:51;101654.72;;;26.66;100.00
20752;BME280;10536;51.582;5.016;2022-08-21T09:43:04;101655.81;;;26.76;100.00
20752;BME280;10536;51.582;5.016;2022-08-21T09:48:24;101650.81;;;26.97;100.00
20752;BME280;10536;51.582;5.016;2022-08-21T09:53:27;101661.13;;;26.89;100.00
20752;BME280;10536;51.582;5.016;2022-08-21T09:58:34;101652.31;;;26.88;100.00
20752;BME280;10536;51.582;5.016;2022-08-21T10:03:35;101658.69;;;26.86;100.00
20752;BME280;10536;51.582;5.016;2022-08-21T10:08:40;101655.41;;;26.82;100.00
20752;BME280;10536;51.582;5.016;2022-08-21T10:20:23;101650.47;;;26.50;100.00
20752;BME280;10536;51.582;5.016;2022-08-21T10:25:12;101638.47;;;26.57;100.00
20752;BME280;10536;51.582;5.016;2022-08-21T10:30:20;101637.44;;;26.73;100.00
20752;BME280;10536;51.582;5.016;2022-08-21T10:35:23;101643.13;;;26.41;100.00
20752;BME280;10536;51.582;5.016;2022-08-21T10:40:33;101652.66;;;26.44;100.00
20752;BME280;10536;51.582;5.016;2022-08-21T10:45:48;101644.06;;;26.40;100.00
20752;BME280;10536;51.582;5.016;2022-08-21T10:50:55;101632.19;;;26.46;100.00
20752;BME280;10536;51.582;5.016;2022-08-21T10:56:10;101638.19;;;26.62;100.00
20752;BME280;10536;51.582;5.016;2022-08-21T11:01:26;101634.78;;;26.20;100.00
20752;BME280;10536;51.582;5.016;2022-08-21T11:06:31;101628.41;;;26.75;100.00
20752;BME280;10536;51.582;5.016;2022-08-21T11:11:36;101637.78;;;26.68;100.00
20752;BME280;10536;51.582;5.016;2022-08-21T11:16:44;101637.66;;;26.17;100.00
20752;BME280;10536;51.582;5.016;2022-08-21T11:21:54;101633.09;;;25.92;100.00
20752;BME280;10536;51.582;5.016;2022-08-21T11:27:13;101631.94;;;26.23;100.00
20752;BME280;10536;51.582;5.016;2022-08-21T11:37:53;101627.81;;;26.32;100.00
20752;BME280;10536;51.582;5.016;2022-08-21T11:59:11;101647.50;;;26.55;100.00
20752;BME280;10536;51.582;5.016;2022-08-21T12:14:23;101638.59;;;26.16;100.00
20752;BME280;10536;51.582;5.016;2022-08-21T12:29:32;101632.41;;;26.43;100.00
20752;BME280;10536;51.582;5.016;2022-08-21T12:34:44;101638.88;;;26.38;100.00
20752;BME280;10536;51.582;5.016;2022-08-21T12:39:47;101640.22;;;26.44;100.00
20752;BME280;10536;51.582;5.016;2022-08-21T12:45:00;101647.47;;;26.15;100.00
20752;BME280;10536;51.582;5.016;2022-08-21T12:50:13;101651.19;;;26.12;100.00
20752;BME280;10536;51.582;5.016;2022-08-21T12:55:26;101649.78;;;26.34;100.00
20752;BME280;10536;51.582;5.016;2022-08-21T13:00:29;101656.97;;;26.19;100.00
20752;BME280;10536;51.582;5.016;2022-08-21T13:05:34;101653.25;;;26.34;100.00
20752;BME280;10536;51.582;5.016;2022-08-21T13:10:37;101650.75;;;26.46;100.00
20752;BME280;10536;51.582;5.016;2022-08-21T13:15:40;101651.59;;;26.46;100.00
20752;BME280;10536;51.582;5.016;2022-08-21T13:20:40;101657.13;;;26.56;100.00
20752;BME280;10536;51.582;5.016;2022-08-21T13:25:42;101650.00;;;26.84;100.00
20752;BME280;10536;51.582;5.016;2022-08-21T13:30:51;101639.47;;;27.08;100.00
20752;BME280;10536;51.582;5.016;2022-08-21T13:46:09;101635.66;;;26.99;100.00
20752;BME280;10536;51.582;5.016;2022-08-21T13:51:11;101631.91;;;27.14;100.00
20752;BME280;10536;51.582;5.016;2022-08-21T13:56:31;101631.19;;;26.87;100.00
20752;BME280;10536;51.582;5.016;2022-08-21T14:01:54;101629.06;;;26.79;100.00
20752;BME280;10536;51.582;5.016;2022-08-21T14:06:59;101624.28;;;26.84;100.00
20752;BME280;10536;51.582;5.016;2022-08-21T14:12:11;101630.56;;;26.70;100.00
20752;BME280;10536;51.582;5.016;2022-08-21T14:17:27;101629.09;;;26.52;100.00
20752;BME280;10536;51.582;5.016;2022-08-21T14:27:38;101621.94;;;26.92;100.00
20752;BME280;10536;51.582;5.016;2022-08-21T14:32:40;101634.16;;;26.69;100.00
20752;BME280;10536;51.582;5.016;2022-08-21T14:37:42;101633.66;;;26.50;100.00
20752;BME280;10536;51.582;5.016;2022-08-21T14:42:44;101632.25;;;26.58;100.00
20752;BME280;10536;51.582;5.016;2022-08-21T14:47:45;101634.81;;;26.33;100.00
20752;BME280;10536;51.582;5.016;2022-08-21T14:52:46;101636.75;;;26.44;100.00
20752;BME280;10536;51.582;5.016;2022-08-21T14:57:50;101639.47;;;26.29;100.00
20752;BME280;10536;51.582;5.016;2022-08-21T15:02:51;101639.19;;;26.47;100.00
20752;BME280;10536;51.582;5.016;2022-08-21T15:07:52;101628.63;;;26.59;100.00
20752;BME280;10536;51.582;5.016;2022-08-21T15:12:52;101633.09;;;26.19;100.00
20752;BME280;10536;51.582;5.016;2022-08-21T15:17:53;101635.34;;;26.38;100.00
20752;BME280;10536;51.582;5.016;2022-08-21T15:22:53;101637.34;;;26.34;100.00
20752;BME280;10536;51.582;5.016;2022-08-21T15:27:53;101624.16;;;26.20;100.00
20752;BME280;10536;51.582;5.016;2022-08-21T15:32:54;101633.44;;;26.27;100.00
20752;BME280;10536;51.582;5.016;2022-08-21T15:37:54;101632.28;;;26.44;100.00
20752;BME280;10536;51.582;5.016;2022-08-21T15:42:57;101633.44;;;26.40;100.00
20752;BME280;10536;51.582;5.016;2022-08-21T15:47:59;101627.47;;;26.24;100.00
20752;BME280;10536;51.582;5.016;2022-08-21T15:52:59;101636.50;;;26.21;100.00
20752;BME280;10536;51.582;5.016;2022-08-21T15:58:00;101639.69;;;25.99;100.00
20752;BME280;10536;51.582;5.016;2022-08-21T16:03:04;101634.09;;;26.04;100.00
20752;BME280;10536;51.582;5.016;2022-08-21T16:08:06;101631.72;;;26.26;100.00
20752;BME280;10536;51.582;5.016;2022-08-21T16:13:14;101632.69;;;26.25;100.00
20752;BME280;10536;51.582;5.016;2022-08-21T16:18:18;101636.13;;;26.13;100.00
20752;BME280;10536;51.582;5.016;2022-08-21T16:23:19;101640.09;;;25.93;100.00
20752;BME280;10536;51.582;5.016;2022-08-21T16:28:19;101629.78;;;25.74;100.00
20752;BME280;10536;51.582;5.016;2022-08-21T16:33:42;101638.88;;;25.70;100.00
20752;BME280;10536;51.582;5.016;2022-08-21T16:38:43;101639.47;;;25.75;100.00
20752;BME280;10536;51.582;5.016;2022-08-21T16:43:44;101636.63;;;25.64;100.00
20752;BME280;10536;51.582;5.016;2022-08-21T16:48:45;101639.22;;;25.36;100.00
20752;BME280;10536;51.582;5.016;2022-08-21T16:53:45;101645.50;;;25.35;100.00
20752;BME280;10536;51.582;5.016;2022-08-21T16:58:48;101640.16;;;25.21;100.00
20752;BME280;10536;51.582;5.016;2022-08-21T17:03:49;101635.63;;;25.09;100.00
20752;BME280;10536;51.582;5.016;2022-08-21T17:08:50;101639.03;;;25.25;100.00
20752;BME280;10536;51.582;5.016;2022-08-21T17:13:55;101638.19;;;24.96;100.00
20752;BME280;10536;51.582;5.016;2022-08-21T17:18:59;101631.63;;;25.01;100.00
20752;BME280;10536;51.582;5.016;2022-08-21T17:24:00;101634.97;;;25.05;100.00
20752;BME280;10536;51.582;5.016;2022-08-21T17:29:00;101631.28;;;25.08;100.00
20752;BME280;10536;51.582;5.016;2022-08-21T17:34:01;101629.38;;;24.95;100.00
20752;BME280;10536;51.582;5.016;2022-08-21T17:39:05;101634.16;;;24.74;100.00
20752;BME280;10536;51.582;5.016;2022-08-21T17:44:45;101633.91;;;24.79;100.00
20752;BME280;10536;51.582;5.016;2022-08-21T17:49:58;101629.06;;;24.71;100.00
20752;BME280;10536;51.582;5.016;2022-08-21T17:54:58;101630.50;;;24.47;100.00
20752;BME280;10536;51.582;5.016;2022-08-21T18:00:00;101637.50;;;24.48;100.00
20752;BME280;10536;51.582;5.016;2022-08-21T18:05:01;101632.03;;;24.20;100.00
20752;BME280;10536;51.582;5.016;2022-08-21T18:10:05;101636.94;;;24.27;100.00
20752;BME280;10536;51.582;5.016;2022-08-21T18:15:06;101629.97;;;24.26;100.00
20752;BME280;10536;51.582;5.016;2022-08-21T18:20:07;101633.56;;;24.55;100.00
20752;BME280;10536;51.582;5.016;2022-08-21T18:25:08;101640.50;;;23.95;100.00
20752;BME280;10536;51.582;5.016;2022-08-21T18:30:16;101640.84;;;23.89;100.00
20752;BME280;10536;51.582;5.016;2022-08-21T18:35:18;101645.94;;;24.08;100.00
20752;BME280;10536;51.582;5.016;2022-08-21T18:40:30;101645.44;;;23.85;100.00
20752;BME280;10536;51.582;5.016;2022-08-21T18:45:32;101640.31;;;24.14;100.00
20752;BME280;10536;51.582;5.016;2022-08-21T18:50:36;101640.75;;;24.07;100.00
20752;BME280;10536;51.582;5.016;2022-08-21T18:55:39;101645.53;;;23.84;100.00
20752;BME280;10536;51.582;5.016;2022-08-21T19:00:45;101645.84;;;23.62;100.00
20752;BME280;10536;51.582;5.016;2022-08-21T19:05:46;101650.47;;;23.90;100.00
20752;BME280;10536;51.582;5.016;2022-08-21T19:10:49;101654.38;;;23.67;100.00
20752;BME280;10536;51.582;5.016;2022-08-21T19:15:51;101654.44;;;23.65;100.00
20752;BME280;10536;51.582;5.016;2022-08-21T19:20:55;101654.56;;;23.80;100.00
20752;BME280;10536;51.582;5.016;2022-08-21T19:25:59;101662.78;;;23.42;100.00
20752;BME280;10536;51.582;5.016;2022-08-21T19:31:13;101657.38;;;23.27;100.00
20752;BME280;10536;51.582;5.016;2022-08-21T19:36:14;101661.50;;;23.16;100.00
20752;BME280;10536;51.582;5.016;2022-08-21T19:41:16;101665.66;;;23.53;100.00
20752;BME280;10536;51.582;5.016;2022-08-21T19:46:29;101670.56;;;23.27;100.00
20752;BME280;10536;51.582;5.016;2022-08-21T19:51:31;101670.00;;;23.05;100.00
20752;BME280;10536;51.582;5.016;2022-08-21T19:56:32;101679.97;;;22.81;100.00
20752;BME280;10536;51.582;5.016;2022-08-21T20:01:33;101670.31;;;23.16;100.00
20752;BME280;10536;51.582;5.016;2022-08-21T20:06:34;101668.13;;;23.07;100.00
20752;BME280;10536;51.582;5.016;2022-08-21T20:11:38;101665.88;;;22.64;100.00
20752;BME280;10536;51.582;5.016;2022-08-21T20:16:39;101669.81;;;22.91;100.00
20752;BME280;10536;51.582;5.016;2022-08-21T20:21:39;101661.25;;;22.70;100.00
20752;BME280;10536;51.582;5.016;2022-08-21T20:26:42;101659.88;;;22.43;100.00
20752;BME280;10536;51.582;5.016;2022-08-21T20:31:43;101660.69;;;22.63;100.00
20752;BME280;10536;51.582;5.016;2022-08-21T20:36:52;101655.72;;;22.92;100.00
20752;BME280;10536;51.582;5.016;2022-08-21T20:41:54;101660.47;;;22.67;100.00
20752;BME280;10536;51.582;5.016;2022-08-21T20:46:55;101669.84;;;22.73;100.00
20752;BME280;10536;51.582;5.016;2022-08-21T20:51:57;101663.78;;;22.71;100.00
20752;BME280;10536;51.582;5.016;2022-08-21T21:07:20;101661.91;;;22.38;100.00
20752;BME280;10536;51.582;5.016;2022-08-21T21:12:31;101665.78;;;22.31;100.00
20752;BME280;10536;51.582;5.016;2022-08-21T21:18:07;101662.59;;;22.42;100.00
20752;BME280;10536;51.582;5.016;2022-08-21T21:23:28;101664.25;;;22.79;100.00
20752;BME280;10536;51.582;5.016;2022-08-21T21:29:18;101654.38;;;22.83;100.00
20752;BME280;10536;51.582;5.016;2022-08-21T21:34:21;101661.75;;;22.41;100.00
20752;BME280;10536;51.582;5.016;2022-08-21T21:39:29;101662.38;;;22.46;100.00
20752;BME280;10536;51.582;5.016;2022-08-21T21:44:42;101661.34;;;22.32;100.00
20752;BME280;10536;51.582;5.016;2022-08-21T21:55:56;101668.72;;;22.06;100.00
20752;BME280;10536;51.582;5.016;2022-08-21T22:00:34;101665.19;;;21.88;100.00
20752;BME280;10536;51.582;5.016;2022-08-21T22:11:14;101660.00;;;22.23;100.00
20752;BME280;10536;51.582;5.016;2022-08-21T22:16:20;101663.81;;;21.98;100.00
20752;BME280;10536;51.582;5.016;2022-08-21T22:21:26;101663.50;;;22.04;100.00
20752;BME280;10536;51.582;5.016;2022-08-21T22:26:38;101670.16;;;21.94;100.00
20752;BME280;10536;51.582;5.016;2022-08-21T22:31:39;101659.25;;;22.02;100.00
20752;BME280;10536;51.582;5.016;2022-08-21T22:36:53;101659.81;;;22.08;100.00
20752;BME280;10536;51.582;5.016;2022-08-21T22:41:54;101659.78;;;21.72;100.00
20752;BME280;10536;51.582;5.016;2022-08-21T22:47:00;101662.91;;;21.80;100.00
20752;BME280;10536;51.582;5.016;2022-08-21T22:52:24;101664.47;;;21.84;100.00
20752;BME280;10536;51.582;5.016;2022-08-21T23:07:44;101658.19;;;21.87;100.00
20752;BME280;10536;51.582;5.016;2022-08-21T23:12:53;101662.63;;;21.86;100.00
20752;BME280;10536;51.582;5.016;2022-08-21T23:18:11;101655.13;;;21.77;100.00
20752;BME280;10536;51.582;5.016;2022-08-21T23:23:27;101659.47;;;21.59;100.00
20752;BME280;10536;51.582;5.016;2022-08-21T23:28:49;101657.50;;;21.64;100.00
20752;BME280;10536;51.582;5.016;2022-08-21T23:40:22;101651.59;;;21.97;100.00
20752;BME280;10536;51.582;5.016;2022-08-21T23:56:19;101647.03;;;21.63;100.00
